createdAt,value
2019-05-20T00:00:07.410Z,11.30
2019-05-20T00:02:37.536Z,11.53
2019-05-20T00:05:08.160Z,12.20
2019-05-20T00:07:39.007Z,12.10
2019-05-20T00:10:11.590Z,11.10
2019-05-20T00:12:43.437Z,11.57
2019-05-20T00:15:15.897Z,10.50
2019-05-20T00:17:48.286Z,11.57
2019-05-20T00:20:19.221Z,11.97
2019-05-20T00:22:49.652Z,11.37
2019-05-20T00:25:20.081Z,12.03
2019-05-20T00:27:50.192Z,11.43
2019-05-20T00:30:21.649Z,11.00
2019-05-20T00:32:52.687Z,10.00
2019-05-20T00:35:24.645Z,11.90
2019-05-20T00:37:58.917Z,12.00
2019-05-20T00:40:29.487Z,11.83
2019-05-20T00:43:00.130Z,12.40
2019-05-20T00:45:30.240Z,11.63
2019-05-20T00:48:00.968Z,13.03
2019-05-20T00:50:31.912Z,13.77
2019-05-20T00:53:02.539Z,11.53
2019-05-20T00:55:33.482Z,12.47
2019-05-20T00:58:04.730Z,12.67
2019-05-20T01:00:35.564Z,11.90
2019-05-20T01:03:06.294Z,13.87
2019-05-20T01:05:36.619Z,14.07
2019-05-20T01:08:07.242Z,14.00
2019-05-20T01:10:37.468Z,13.40
2019-05-20T01:13:08.200Z,12.43
2019-05-20T01:15:38.629Z,14.83
2019-05-20T01:18:09.270Z,14.13
2019-05-20T01:20:39.591Z,11.83
2019-05-20T01:23:10.531Z,14.53
2019-05-20T01:25:40.860Z,12.67
2019-05-20T01:28:11.792Z,13.33
2019-05-20T01:30:43.535Z,13.73
2019-05-20T01:33:14.573Z,13.50
2019-05-20T01:35:44.490Z,13.67
2019-05-20T01:38:14.514Z,12.73
2019-05-20T01:40:46.262Z,11.53
2019-05-20T01:43:16.495Z,12.67
2019-05-20T01:45:47.118Z,11.70
2019-05-20T01:48:17.761Z,11.87
2019-05-20T01:50:48.274Z,11.07
2019-05-20T01:53:20.041Z,11.20
2019-05-20T01:55:52.929Z,11.10
2019-05-20T02:01:30.886Z,10.93
2019-05-20T02:04:06.698Z,8.60
2019-05-20T02:06:37.737Z,10.07
2019-05-20T02:09:14.715Z,10.13
2019-05-20T02:11:45.660Z,10.20
2019-05-20T02:14:20.689Z,11.53
2019-05-20T02:16:51.624Z,10.43
2019-05-20T02:19:21.538Z,10.03
2019-05-20T02:21:51.772Z,8.73
2019-05-20T02:24:22.191Z,10.07
2019-05-20T02:26:52.741Z,10.07
2019-05-20T02:29:23.448Z,11.40
2019-05-20T02:31:53.670Z,10.87
2019-05-20T02:34:24.726Z,10.47
2019-05-20T02:36:57.094Z,11.50
2019-05-20T02:39:33.894Z,12.87
2019-05-20T02:42:05.903Z,9.93
2019-05-20T02:44:37.270Z,11.70
2019-05-20T02:47:08.341Z,11.03
2019-05-20T02:49:38.645Z,11.43
2019-05-20T02:52:09.573Z,11.50
2019-05-20T02:54:40.200Z,11.57
2019-05-20T02:57:10.657Z,12.20
2019-05-20T02:59:41.259Z,12.73
2019-05-20T03:02:12.310Z,11.97
2019-05-20T03:04:42.903Z,12.07
2019-05-20T03:07:13.561Z,13.97
2019-05-20T03:09:44.709Z,12.33
2019-05-20T03:12:15.233Z,12.50
2019-05-20T03:14:45.667Z,11.70
2019-05-20T03:17:16.701Z,11.17
2019-05-20T03:19:47.461Z,12.53
2019-05-20T03:22:17.871Z,12.77
2019-05-20T03:24:49.209Z,12.50
2019-05-20T03:27:20.889Z,11.50
2019-05-20T03:29:52.900Z,12.77
2019-05-20T03:32:24.801Z,13.17
2019-05-20T03:34:59.997Z,12.60
2019-05-20T03:37:28.913Z,12.37
2019-05-20T03:40:00.673Z,15.33
2019-05-20T03:42:30.586Z,13.00
2019-05-20T03:45:00.599Z,13.27
2019-05-20T03:47:30.822Z,14.43
2019-05-20T03:50:00.939Z,13.43
2019-05-20T03:52:31.281Z,13.43
2019-05-20T03:55:01.697Z,14.07
2019-05-20T03:57:32.220Z,13.10
2019-05-20T04:00:03.162Z,12.03
2019-05-20T04:02:33.281Z,13.87
2019-05-20T04:05:03.651Z,12.80
2019-05-20T04:07:33.826Z,12.43
2019-05-20T04:10:04.559Z,12.73
2019-05-20T04:12:35.088Z,11.60
2019-05-20T04:15:05.726Z,11.83
2019-05-20T04:17:36.657Z,11.60
2019-05-20T04:20:07.610Z,11.50
2019-05-20T04:22:38.126Z,12.63
2019-05-20T04:25:09.592Z,12.67
2019-05-20T04:27:40.622Z,14.10
2019-05-20T04:30:11.671Z,11.83
2019-05-20T04:32:42.619Z,12.50
2019-05-20T04:35:22.240Z,12.07
2019-05-20T04:37:45.691Z,11.63
2019-05-20T04:40:16.221Z,11.33
2019-05-20T04:42:47.273Z,11.53
2019-05-20T04:45:18.609Z,11.90
2019-05-20T04:47:49.648Z,11.50
2019-05-20T04:50:21.229Z,11.03
2019-05-20T04:52:52.454Z,11.10
2019-05-20T04:55:23.899Z,10.97
2019-05-20T04:57:54.131Z,11.57
2019-05-20T05:00:44.209Z,12.03
2019-05-20T05:03:19.767Z,11.73
2019-05-20T05:06:11.703Z,11.40
2019-05-20T05:08:42.720Z,12.20
2019-05-20T05:11:16.645Z,12.37
2019-05-20T05:13:46.546Z,13.37
2019-05-20T05:16:17.292Z,12.23
2019-05-20T05:18:48.116Z,12.40
2019-05-20T05:21:19.280Z,11.10
2019-05-20T05:23:58.912Z,12.07
2019-05-20T05:26:22.159Z,12.80
2019-05-20T05:28:52.614Z,13.13
2019-05-20T05:31:22.603Z,12.73
2019-05-20T05:33:54.468Z,12.30
2019-05-20T05:36:24.494Z,12.70
2019-05-20T05:38:57.457Z,13.27
2019-05-20T05:41:27.375Z,14.30
2019-05-20T05:43:57.392Z,15.13
2019-05-20T05:46:27.415Z,14.90
2019-05-20T05:48:57.527Z,14.07
2019-05-20T05:51:27.667Z,14.03
2019-05-20T05:53:57.588Z,15.93
2019-05-20T05:56:27.287Z,13.87
2019-05-20T05:58:57.286Z,15.83
2019-05-20T06:01:27.622Z,15.23
2019-05-20T06:03:57.432Z,15.43
2019-05-20T06:06:27.334Z,15.80
2019-05-20T06:08:57.587Z,16.30
2019-05-20T06:11:27.704Z,15.47
2019-05-20T06:13:57.606Z,16.83
2019-05-20T06:16:36.336Z,16.83
2019-05-20T06:18:59.195Z,19.03
2019-05-20T06:21:29.278Z,17.70
2019-05-20T06:23:59.617Z,16.73
2019-05-20T06:26:30.046Z,16.20
2019-05-20T06:29:02.911Z,15.80
2019-05-20T06:31:33.378Z,18.27
2019-05-20T06:34:03.468Z,18.67
2019-05-20T06:36:37.573Z,18.17
2019-05-20T06:39:14.448Z,18.23
2019-05-20T06:41:44.258Z,18.03
2019-05-20T06:44:14.276Z,18.67
2019-05-20T06:46:44.302Z,18.30
2019-05-20T06:49:15.843Z,16.23
2019-05-20T06:51:45.883Z,19.30
2019-05-20T06:54:16.183Z,20.30
2019-05-20T06:56:46.262Z,16.70
2019-05-20T06:59:16.423Z,17.47
2019-05-20T07:01:46.643Z,16.77
2019-05-20T07:04:16.558Z,16.40
2019-05-20T07:06:47.665Z,15.53
2019-05-20T07:09:17.882Z,17.37
2019-05-20T07:11:52.602Z,18.27
2019-05-20T07:14:19.694Z,17.37
2019-05-20T07:16:50.215Z,16.10
2019-05-20T07:19:20.268Z,16.90
2019-05-20T07:21:50.583Z,18.27
2019-05-20T07:24:20.280Z,17.60
2019-05-20T07:26:50.295Z,18.03
2019-05-20T07:29:20.520Z,19.37
2019-05-20T07:31:50.119Z,19.20
2019-05-20T07:34:20.664Z,18.97
2019-05-20T07:37:02.522Z,19.13
2019-05-20T07:39:22.429Z,20.60
2019-05-20T07:41:52.231Z,21.30
2019-05-20T07:44:21.888Z,23.30
2019-05-20T07:46:52.191Z,25.27
2019-05-20T07:49:22.278Z,26.20
2019-05-20T07:51:52.809Z,26.37
2019-05-20T07:54:23.541Z,25.90
2019-05-20T07:56:54.482Z,28.50
2019-05-20T07:59:25.956Z,28.07
2019-05-20T08:01:56.149Z,26.70
2019-05-20T08:04:26.014Z,28.87
2019-05-20T08:06:56.084Z,29.50
2019-05-20T08:09:26.638Z,30.23
2019-05-20T08:11:56.523Z,28.80
2019-05-20T08:14:26.341Z,29.10
2019-05-20T08:16:56.259Z,30.13
2019-05-20T08:19:26.166Z,29.67
2019-05-20T08:21:56.283Z,29.27
2019-05-20T08:24:26.229Z,32.30
2019-05-20T08:26:56.120Z,29.07
2019-05-20T08:29:27.461Z,35.67
2019-05-20T08:31:57.269Z,41.13
2019-05-20T08:34:27.301Z,33.80
2019-05-20T08:36:57.642Z,30.17
2019-05-20T08:39:27.841Z,28.53
2019-05-20T08:41:59.628Z,26.17
2019-05-20T08:44:30.910Z,28.27
2019-05-20T08:47:02.097Z,26.93
2019-05-20T08:49:33.131Z,26.70
2019-05-20T08:52:04.288Z,24.17
2019-05-20T08:54:34.594Z,25.83
2019-05-20T08:57:05.566Z,25.50
2019-05-20T08:59:36.500Z,24.50
2019-05-20T09:02:06.799Z,21.67
2019-05-20T09:04:37.142Z,25.40
2019-05-20T09:07:07.134Z,23.63
2019-05-20T09:09:38.214Z,22.80
2019-05-20T09:12:09.628Z,23.13
2019-05-20T09:14:40.638Z,24.03
2019-05-20T09:17:11.906Z,24.40
2019-05-20T09:19:42.232Z,22.57
2019-05-20T09:22:15.123Z,22.07
2019-05-20T09:24:47.377Z,22.27
2019-05-20T09:27:22.888Z,21.83
2019-05-20T09:30:04.239Z,22.23
2019-05-20T09:32:36.600Z,22.10
2019-05-20T09:35:11.744Z,21.30
2019-05-20T09:37:48.596Z,23.77
2019-05-20T09:40:25.269Z,22.53
2019-05-20T09:42:55.609Z,24.60
2019-05-20T09:45:28.080Z,24.57
2019-05-20T09:48:02.387Z,23.40
2019-05-20T09:50:32.822Z,23.73
2019-05-20T09:53:06.928Z,24.40
2019-05-20T09:55:35.801Z,24.03
2019-05-20T09:58:07.263Z,24.83
2019-05-20T10:00:38.695Z,24.30
2019-05-20T10:03:09.559Z,24.83
2019-05-20T10:05:41.439Z,23.77
2019-05-20T10:08:11.642Z,26.87
2019-05-20T10:10:41.891Z,26.47
2019-05-20T10:13:12.298Z,26.90
2019-05-20T10:15:45.363Z,26.33
2019-05-20T10:18:16.620Z,25.47
2019-05-20T10:20:47.243Z,27.13
2019-05-20T10:23:17.258Z,27.93
2019-05-20T10:25:49.838Z,26.07
2019-05-20T10:28:20.789Z,29.93
2019-05-20T10:30:52.340Z,28.27
2019-05-20T10:33:30.440Z,29.37
2019-05-20T10:36:00.241Z,35.43
2019-05-20T10:38:33.228Z,35.83
2019-05-20T10:41:03.253Z,38.00
2019-05-20T10:43:33.468Z,36.00
2019-05-20T10:46:03.808Z,36.20
2019-05-20T10:48:34.032Z,35.70
2019-05-20T10:51:03.824Z,35.10
2019-05-20T10:53:34.064Z,34.13
2019-05-20T10:56:04.159Z,34.83
2019-05-20T10:58:34.491Z,37.73
2019-05-20T11:01:04.625Z,38.47
2019-05-20T11:03:34.517Z,32.23
2019-05-20T11:06:04.451Z,33.83
2019-05-20T11:08:35.076Z,19.83
2019-05-20T11:11:07.341Z,19.10
2019-05-20T11:13:38.992Z,16.53
2019-05-20T11:16:09.216Z,16.13
2019-05-20T11:18:39.124Z,12.77
2019-05-20T11:21:09.244Z,11.80
2019-05-20T11:23:39.575Z,11.60
2019-05-20T11:26:09.488Z,8.53
2019-05-20T11:28:39.885Z,9.00
2019-05-20T11:31:09.917Z,9.43
2019-05-20T11:33:40.954Z,6.10
2019-05-20T11:36:10.979Z,6.80
2019-05-20T11:38:40.899Z,6.97
2019-05-20T11:41:11.218Z,5.50
2019-05-20T11:43:41.130Z,4.00
2019-05-20T11:46:11.460Z,1.53
2019-05-20T11:48:41.577Z,1.00
2019-05-20T11:51:11.629Z,0.90
2019-05-20T11:53:42.019Z,0.67
2019-05-20T11:56:12.565Z,0.70
2019-05-20T11:58:42.280Z,0.60
2019-05-20T12:01:12.585Z,0.50
2019-05-20T12:03:42.620Z,0.80
2019-05-20T12:06:12.648Z,0.80
2019-05-20T12:08:43.446Z,0.60
2019-05-20T12:11:13.463Z,0.77
2019-05-20T12:13:44.302Z,0.60
2019-05-20T12:16:14.359Z,1.10
2019-05-20T12:18:45.177Z,0.60
2019-05-20T12:21:15.279Z,0.80
2019-05-20T12:23:47.659Z,0.97
2019-05-20T12:26:17.659Z,1.10
2019-05-20T12:28:48.088Z,1.00
2019-05-20T12:31:19.893Z,0.90
2019-05-20T12:33:51.219Z,0.90
2019-05-20T12:36:21.919Z,1.00
2019-05-20T12:38:52.658Z,0.90
2019-05-20T12:41:22.710Z,1.20
2019-05-20T12:44:11.869Z,1.30
2019-05-20T12:46:34.617Z,1.00
2019-05-20T12:49:05.045Z,1.40
2019-05-20T12:51:36.280Z,1.23
2019-05-20T12:54:06.479Z,1.30
2019-05-20T12:56:36.610Z,1.30
2019-05-20T12:59:06.748Z,1.23
2019-05-20T13:01:37.038Z,1.20
2019-05-20T13:04:07.497Z,1.17
2019-05-20T13:06:37.997Z,1.30
2019-05-20T13:09:09.041Z,1.40
2019-05-20T13:11:39.969Z,1.50
2019-05-20T13:14:09.894Z,1.20
2019-05-20T13:16:39.868Z,1.43
2019-05-20T13:19:10.229Z,1.70
2019-05-20T13:21:41.179Z,1.80
2019-05-20T13:24:11.321Z,1.90
2019-05-20T13:26:41.503Z,1.80
2019-05-20T13:29:11.719Z,1.93
2019-05-20T13:31:41.894Z,1.77
2019-05-20T13:34:12.576Z,1.70
2019-05-20T13:36:42.620Z,2.20
2019-05-20T13:39:12.718Z,1.93
2019-05-20T13:41:43.699Z,2.10
2019-05-20T13:44:13.477Z,1.97
2019-05-20T13:46:43.799Z,1.87
2019-05-20T13:49:16.276Z,1.87
2019-05-20T13:51:47.098Z,1.80
2019-05-20T13:54:21.213Z,2.10
2019-05-20T13:56:51.846Z,2.10
2019-05-20T13:59:24.407Z,1.57
2019-05-20T14:01:54.542Z,1.80
2019-05-20T14:04:25.372Z,1.70
2019-05-20T14:06:56.229Z,1.63
2019-05-20T14:09:26.545Z,1.40
2019-05-20T14:11:57.283Z,2.20
2019-05-20T14:14:27.885Z,1.80
2019-05-20T14:16:59.251Z,1.67
2019-05-20T14:19:29.594Z,1.80
2019-05-20T14:21:59.592Z,1.60
2019-05-20T14:24:29.712Z,1.83
2019-05-20T14:27:00.553Z,1.73
2019-05-20T14:29:30.374Z,1.80
2019-05-20T14:32:01.291Z,1.43
2019-05-20T14:34:32.032Z,1.50
2019-05-20T14:37:02.569Z,1.60
2019-05-20T14:39:35.661Z,1.40
2019-05-20T14:42:05.558Z,1.90
2019-05-20T14:44:36.617Z,2.23
2019-05-20T14:47:06.608Z,1.43
2019-05-20T14:49:36.635Z,1.30
2019-05-20T14:52:06.553Z,1.53
2019-05-20T14:54:36.867Z,1.33
2019-05-20T14:57:08.106Z,1.33
2019-05-20T14:59:37.817Z,1.27
2019-05-20T15:02:08.159Z,1.30
2019-05-20T15:04:38.181Z,1.43
2019-05-20T15:07:08.101Z,1.33
2019-05-20T15:09:38.207Z,1.40
2019-05-20T15:12:08.622Z,1.50
2019-05-20T15:14:42.416Z,1.57
2019-05-20T15:17:11.623Z,1.67
2019-05-20T15:19:41.894Z,1.40
2019-05-20T15:22:12.510Z,1.67
2019-05-20T15:24:43.117Z,1.80
2019-05-20T15:27:14.678Z,1.57
2019-05-20T15:29:46.321Z,1.50
2019-05-20T15:32:19.023Z,1.47
2019-05-20T15:34:50.909Z,1.93
2019-05-20T15:37:21.300Z,1.53
2019-05-20T15:39:52.025Z,1.90
2019-05-20T15:42:21.838Z,1.80
2019-05-20T15:44:53.271Z,1.50
2019-05-20T15:47:23.629Z,1.33
2019-05-20T15:49:53.620Z,1.50
2019-05-20T15:52:23.889Z,1.40
2019-05-20T15:54:54.062Z,2.00
2019-05-20T15:57:24.498Z,1.57
2019-05-20T15:59:54.898Z,1.60
2019-05-20T16:02:25.028Z,1.50
2019-05-20T16:04:55.457Z,2.40
2019-05-20T16:07:25.909Z,1.60
2019-05-20T16:09:56.638Z,1.50
2019-05-20T16:12:26.627Z,1.60
2019-05-20T16:14:56.448Z,2.00
2019-05-20T16:17:26.556Z,1.73
2019-05-20T16:19:56.992Z,1.90
2019-05-20T16:22:27.116Z,1.90
2019-05-20T16:24:57.122Z,1.90
2019-05-20T16:27:27.258Z,2.13
2019-05-20T16:30:05.949Z,2.40
2019-05-20T16:32:29.441Z,1.90
2019-05-20T16:35:00.465Z,1.83
2019-05-20T16:37:32.223Z,2.30
2019-05-20T16:40:02.875Z,2.50
2019-05-20T16:42:34.001Z,1.80
2019-05-20T16:45:04.320Z,2.40
2019-05-20T16:47:34.234Z,2.10
2019-05-20T16:50:08.323Z,1.83
2019-05-20T16:52:41.542Z,2.33
2019-05-20T16:55:11.558Z,1.90
2019-05-20T16:57:41.672Z,2.30
2019-05-20T17:00:29.914Z,2.43
2019-05-20T17:02:43.443Z,2.90
2019-05-20T17:05:14.178Z,2.50
2019-05-20T17:07:44.818Z,2.77
2019-05-20T17:10:15.138Z,2.57
2019-05-20T17:12:46.480Z,2.50
2019-05-20T17:15:17.116Z,2.93
2019-05-20T17:17:47.241Z,3.03
2019-05-20T17:20:18.504Z,2.50
2019-05-20T17:22:48.596Z,2.50
2019-05-20T17:25:19.123Z,2.40
2019-05-20T17:27:49.445Z,2.50
2019-05-20T17:30:19.589Z,2.90
2019-05-20T17:32:49.993Z,2.60
2019-05-20T17:35:20.628Z,2.53
2019-05-20T17:37:55.184Z,2.43
2019-05-20T17:40:26.500Z,2.40
2019-05-20T17:42:57.125Z,2.80
2019-05-20T17:45:27.569Z,3.10
2019-05-20T17:47:57.693Z,2.40
2019-05-20T17:50:28.534Z,2.47
2019-05-20T17:52:58.526Z,2.77
2019-05-20T17:55:29.656Z,3.50
2019-05-20T17:58:00.715Z,3.20
2019-05-20T18:00:31.028Z,2.90
2019-05-20T18:03:01.247Z,2.63
2019-05-20T18:05:33.214Z,3.00
2019-05-20T18:08:06.884Z,2.53
2019-05-20T18:10:38.471Z,2.90
2019-05-20T18:13:09.307Z,2.50
2019-05-20T18:15:41.580Z,2.80
2019-05-20T18:18:15.609Z,2.97
2019-05-20T18:21:03.220Z,3.20
2019-05-20T18:23:41.669Z,3.07
2019-05-20T18:26:17.287Z,2.87
2019-05-20T18:28:53.232Z,2.93
2019-05-20T18:31:44.768Z,3.20
2019-05-20T18:34:38.242Z,3.80
2019-05-20T18:37:09.570Z,3.17
2019-05-20T18:39:41.018Z,2.97
2019-05-20T18:42:12.691Z,3.10
2019-05-20T18:44:51.287Z,3.27
2019-05-20T18:47:27.553Z,3.40
2019-05-20T18:50:39.470Z,3.20
2019-05-20T19:00:17.816Z,3.50
2019-05-20T19:05:45.295Z,3.50
2019-05-20T19:08:31.580Z,3.63
2019-05-20T19:11:49.215Z,4.40
2019-05-20T19:14:22.129Z,5.10
2019-05-20T19:16:53.783Z,4.80
2019-05-20T19:19:25.302Z,5.37
2019-05-20T19:21:55.730Z,4.80
2019-05-20T19:24:26.161Z,5.17
2019-05-20T19:26:56.374Z,4.40
2019-05-20T19:29:26.499Z,5.73
2019-05-20T19:32:02.418Z,6.00
2019-05-20T19:34:34.208Z,6.70
2019-05-20T19:37:04.643Z,7.30
2019-05-20T19:39:35.580Z,6.80
2019-05-20T19:42:05.585Z,5.40
2019-05-20T19:44:36.647Z,5.57
2019-05-20T19:47:07.283Z,9.20
2019-05-20T19:49:37.484Z,10.07
2019-05-20T19:52:08.225Z,10.00
2019-05-20T19:54:38.884Z,11.03
2019-05-20T19:57:12.762Z,12.20
2019-05-20T19:59:43.488Z,9.63
2019-05-20T20:02:17.318Z,8.67
2019-05-20T20:04:45.891Z,9.40
2019-05-20T20:07:16.403Z,8.00
2019-05-20T20:09:46.521Z,7.20
2019-05-20T20:12:16.540Z,8.27
2019-05-20T20:14:46.289Z,6.97
2019-05-20T20:17:16.880Z,7.53
2019-05-20T20:19:48.048Z,8.03
2019-05-20T20:22:19.288Z,7.57
2019-05-20T20:24:53.796Z,7.03
2019-05-20T20:27:23.910Z,7.73
2019-05-20T20:29:54.339Z,7.50
2019-05-20T20:32:37.355Z,8.47
2019-05-20T20:34:57.545Z,8.10
2019-05-20T20:37:27.563Z,10.40
2019-05-20T20:39:58.423Z,10.20
2019-05-20T20:42:28.929Z,11.03
2019-05-20T20:45:00.073Z,10.53
2019-05-20T20:47:41.183Z,9.73
2019-05-20T20:50:03.280Z,7.80
2019-05-20T20:52:33.608Z,7.97
2019-05-20T20:55:06.886Z,7.80
2019-05-20T20:57:37.319Z,6.83
2019-05-20T21:00:07.885Z,6.73
2019-05-20T21:02:52.229Z,6.27
2019-05-20T21:05:10.544Z,6.30
2019-05-20T21:07:41.184Z,6.07
2019-05-20T21:10:11.509Z,6.00
2019-05-20T21:12:41.005Z,5.73
2019-05-20T21:15:11.031Z,6.00
2019-05-20T21:17:42.166Z,5.33
2019-05-20T21:20:12.290Z,5.87
2019-05-20T21:22:43.153Z,6.30
2019-05-20T21:25:14.463Z,5.40
2019-05-20T21:27:45.315Z,6.50
2019-05-20T21:30:15.522Z,6.53
2019-05-20T21:32:46.489Z,6.00
2019-05-20T21:35:16.880Z,7.20
2019-05-20T21:37:47.207Z,5.90
2019-05-20T21:40:16.908Z,6.37
2019-05-20T21:42:47.147Z,6.17
2019-05-20T21:45:17.562Z,6.83
2019-05-20T21:47:47.476Z,6.73
2019-05-20T21:50:17.502Z,6.10
2019-05-20T21:52:48.148Z,6.20
2019-05-20T21:55:19.288Z,6.90
2019-05-20T21:57:49.695Z,7.13
2019-05-20T22:00:25.677Z,6.60
2019-05-20T22:02:57.728Z,6.67
2019-05-20T22:05:39.731Z,5.60
2019-05-20T22:08:15.257Z,5.97
2019-05-20T22:10:46.718Z,6.03
2019-05-20T22:13:17.554Z,5.57
2019-05-20T22:15:47.574Z,7.20
2019-05-20T22:18:18.087Z,7.30
2019-05-20T22:20:49.028Z,7.53
2019-05-20T22:23:42.698Z,8.23
2019-05-20T22:26:13.739Z,8.57
2019-05-20T22:28:47.041Z,7.73
2019-05-20T22:31:19.890Z,7.50
2019-05-20T22:33:57.617Z,8.30
2019-05-20T22:36:36.541Z,9.13
2019-05-20T22:39:09.011Z,9.03
2019-05-20T22:41:40.688Z,7.80
2019-05-20T22:44:11.504Z,7.23
2019-05-20T22:46:42.648Z,12.47
2019-05-20T22:49:13.793Z,13.67
2019-05-20T22:51:45.357Z,14.47
2019-05-20T22:54:16.691Z,16.60
2019-05-20T22:56:47.778Z,20.17
2019-05-20T22:59:19.178Z,20.47
2019-05-20T23:01:50.014Z,20.03
2019-05-20T23:04:21.574Z,20.67
2019-05-20T23:06:52.508Z,20.10
2019-05-20T23:09:23.657Z,20.80
2019-05-20T23:11:54.688Z,18.20
2019-05-20T23:14:25.625Z,21.13
2019-05-20T23:16:56.668Z,15.93
2019-05-20T23:19:29.653Z,14.17
2019-05-20T23:22:01.514Z,12.87
2019-05-20T23:24:32.145Z,11.83
2019-05-20T23:27:04.414Z,11.13
2019-05-20T23:29:35.363Z,11.60
2019-05-20T23:32:06.707Z,11.63
2019-05-20T23:34:37.640Z,12.40
2019-05-20T23:37:09.807Z,15.90
2019-05-20T23:39:41.679Z,15.93
2019-05-20T23:42:13.014Z,17.83
2019-05-20T23:44:44.776Z,18.97
2019-05-20T23:47:16.333Z,20.27
2019-05-20T23:49:47.669Z,16.80
2019-05-20T23:52:18.621Z,15.70
2019-05-20T23:54:50.385Z,14.47
2019-05-20T23:57:21.711Z,14.67
2019-05-20T23:59:53.381Z,13.30
